createdAt,value
2023-11-13T00:02:43.301Z,5.3
2023-11-13T00:08:36.614Z,5.3
2023-11-13T00:14:28.081Z,5.3
2023-11-13T00:20:21.004Z,5.3
2023-11-13T00:26:12.540Z,5.2
2023-11-13T00:32:04.273Z,5.3
2023-11-13T00:37:56.891Z,5.2
2023-11-13T00:43:52.293Z,5.2
2023-11-13T00:49:44.364Z,5.2
2023-11-13T00:55:36.766Z,5.3
2023-11-13T01:01:28.177Z,5.2
2023-11-13T01:07:21.491Z,5.3
2023-11-13T01:13:14.168Z,5.3
2023-11-13T01:19:05.047Z,5.3
2023-11-13T01:24:56.735Z,5.3
2023-11-13T01:30:52.189Z,5.3
2023-11-13T01:36:43.913Z,5.3
2023-11-13T01:42:35.561Z,5.3
2023-11-13T01:48:28.698Z,5.3
2023-11-13T01:54:20.370Z,5.4
2023-11-13T02:00:11.669Z,5.4
2023-11-13T02:06:04.376Z,5.4
2023-11-13T02:11:55.762Z,5.4
2023-11-13T02:17:47.754Z,5.4
2023-11-13T02:23:24.608Z,5.4
2023-11-13T02:29:16.226Z,5.4
2023-11-13T02:35:08.106Z,5.5
2023-11-13T02:40:59.789Z,5.5
2023-11-13T02:46:50.886Z,5.5
2023-11-13T02:52:42.955Z,5.5
2023-11-13T02:58:35.736Z,5.5
2023-11-13T03:04:28.187Z,5.5
2023-11-13T03:10:19.797Z,5.4
2023-11-13T03:15:55.925Z,5.4
2023-11-13T03:21:47.541Z,5.4
2023-11-13T03:27:23.932Z,5.3
2023-11-13T03:33:16.493Z,5.3
2023-11-13T03:38:52.709Z,5.3
2023-11-13T03:44:44.673Z,5.3
2023-11-13T03:50:37.159Z,5.3
2023-11-13T03:56:28.902Z,5.3
2023-11-13T04:02:21.488Z,5.3
2023-11-13T04:08:14.392Z,5.2
2023-11-13T04:14:04.902Z,5.2
2023-11-13T04:19:41.436Z,5.1
2023-11-13T04:25:33.852Z,5.1
2023-11-13T04:31:13.749Z,5.1
2023-11-13T04:36:50.891Z,5.1
2023-11-13T04:42:42.942Z,5.1
2023-11-13T04:48:35.053Z,5
2023-11-13T04:54:26.336Z,5
2023-11-13T05:00:22.305Z,4.9
2023-11-13T05:06:14.941Z,4.9
2023-11-13T05:12:06.813Z,4.9
2023-11-13T05:18:01.591Z,4.9
2023-11-13T05:23:53.736Z,5
2023-11-13T05:29:45.650Z,5
2023-11-13T05:35:38.590Z,4.9
2023-11-13T05:41:29.396Z,5
2023-11-13T05:47:21.926Z,5
2023-11-13T05:53:16.851Z,5.1
2023-11-13T05:59:09.296Z,5.2
2023-11-13T06:05:02.054Z,6.3
2023-11-13T06:10:56.984Z,8.3
2023-11-13T06:16:48.378Z,12
2023-11-13T06:22:24.325Z,17.5
2023-11-13T06:28:19.942Z,22.7
2023-11-13T06:34:13.887Z,27.6
2023-11-13T06:39:50.725Z,32.6
2023-11-13T06:45:43.610Z,38.2
2023-11-13T06:51:36.250Z,43.8
2023-11-13T06:57:27.967Z,48.4
2023-11-13T07:03:21.291Z,52.7
2023-11-13T07:09:12.951Z,53.3
2023-11-13T07:14:52.399Z,54.4
2023-11-13T07:20:45.618Z,55.2
2023-11-13T07:26:36.930Z,55.8
2023-11-13T07:32:29.538Z,58
2023-11-13T07:38:22.812Z,59.4
2023-11-13T07:44:14.436Z,59.5
2023-11-13T07:50:07.808Z,62
2023-11-13T07:56:17.622Z,66.6
2023-11-13T08:02:10.887Z,57.4
2023-11-13T08:08:11.108Z,49.3
2023-11-13T08:14:04.029Z,58.8
2023-11-13T08:19:55.227Z,67.4
2023-11-13T08:25:48.571Z,60.8
2023-11-13T08:31:44.065Z,54.1
2023-11-13T08:37:36.687Z,62.3
2023-11-13T08:43:26.535Z,64.4
2023-11-13T08:49:35.784Z,58.7
2023-11-13T08:55:27.541Z,58.1
2023-11-13T09:07:00.816Z,59
2023-11-13T09:12:53.682Z,56
2023-11-13T09:18:30.762Z,54.3
2023-11-13T09:24:23.463Z,64.9
2023-11-13T09:30:15.123Z,66.6
2023-11-13T09:36:06.564Z,57.8
2023-11-13T09:41:59.648Z,60.6
2023-11-13T09:48:04.672Z,61.1
2023-11-13T09:54:05.206Z,61.4
2023-11-13T09:59:58.130Z,61.8
2023-11-13T10:05:55.116Z,62.5
2023-11-13T10:11:46.871Z,61.6
2023-11-13T10:17:24.330Z,62.3
2023-11-13T10:23:19.859Z,62.3
2023-11-13T10:29:11.276Z,62.3
2023-11-13T10:34:53.023Z,62.7
2023-11-13T10:40:53.024Z,62.9
2023-11-13T10:46:48.385Z,63
2023-11-13T10:52:41.243Z,62.9
2023-11-13T10:58:18.075Z,62.6
2023-11-13T11:04:13.478Z,62.3
2023-11-13T11:10:10.751Z,61.6
2023-11-13T11:16:10.205Z,61.4
2023-11-13T11:22:04.863Z,60.5
2023-11-13T11:27:58.144Z,60.8
2023-11-13T11:33:46.119Z,65.4
2023-11-13T11:39:38.052Z,71.9
2023-11-13T11:45:17.843Z,64.6
2023-11-13T11:51:24.107Z,59.5
2023-11-13T11:57:17.439Z,64.4
2023-11-13T12:03:12.138Z,70.7
2023-11-13T12:09:04.936Z,63.8
2023-11-13T12:14:40.529Z,56.8
2023-11-13T12:20:47.415Z,59.4
2023-11-13T12:26:39.092Z,64.4
2023-11-13T12:32:31.278Z,66.7
2023-11-13T12:38:08.577Z,68.1
2023-11-13T12:43:59.870Z,63.9
2023-11-13T12:49:59.338Z,56.4
2023-11-13T12:55:52.962Z,57.6
2023-11-13T13:01:43.181Z,58.6
2023-11-13T13:07:40.752Z,59.1
2023-11-13T13:13:45.111Z,59.6
2023-11-13T13:19:42.364Z,59.6
2023-11-13T13:25:35.056Z,58.9
2023-11-13T13:31:29.459Z,57.6
2023-11-13T13:37:22.247Z,56.3
2023-11-13T13:43:13.073Z,54.3
2023-11-13T13:49:06.095Z,52.1
2023-11-13T13:55:01.182Z,49.7
2023-11-13T14:01:07.572Z,47.1
2023-11-13T14:07:01.499Z,44.4
2023-11-13T14:13:13.765Z,41.8
2023-11-13T14:19:07.689Z,39.1
2023-11-13T14:25:02.921Z,36.9
2023-11-13T14:30:25.444Z,34.6
2023-11-13T14:36:18.073Z,32.5
2023-11-13T14:41:56.422Z,30.1
2023-11-13T14:47:50.280Z,27.4
2023-11-13T14:53:48.840Z,24.9
2023-11-13T14:59:42.289Z,23
2023-11-13T15:05:35.817Z,21.3
2023-11-13T15:11:26.809Z,19.6
2023-11-13T15:17:19.615Z,18.1
2023-11-13T15:24:00.519Z,16.9
2023-11-13T15:29:38.648Z,15.8
2023-11-13T15:35:39.475Z,14.8
2023-11-13T15:41:31.743Z,14
2023-11-13T15:47:08.360Z,13.3
2023-11-13T15:52:45.878Z,12.7
2023-11-13T15:58:38.418Z,12.1
2023-11-13T16:04:33.924Z,11.6
2023-11-13T16:10:27.456Z,11.2
2023-11-13T16:16:20.482Z,10.7
2023-11-13T16:22:00.577Z,10.3
2023-11-13T16:27:52.606Z,10
2023-11-13T16:33:44.990Z,9.6
2023-11-13T16:39:19.686Z,9.4
2023-11-13T16:45:12.209Z,9.1
2023-11-13T16:51:06.773Z,8.9
2023-11-13T16:57:02.180Z,8.6
2023-11-13T17:02:55.072Z,8.4
2023-11-13T17:08:49.558Z,8.3
2023-11-13T17:14:25.556Z,8.2
2023-11-13T17:20:21.629Z,8
2023-11-13T17:26:00.036Z,7.9
2023-11-13T17:31:53.341Z,7.7
2023-11-13T17:37:48.135Z,7.5
2023-11-13T17:43:24.346Z,7.2
2023-11-13T17:49:00.808Z,7
2023-11-13T17:54:52.728Z,6.8
2023-11-13T18:00:46.154Z,6.6
2023-11-13T18:06:43.443Z,6.4
2023-11-13T18:12:20.009Z,6.2
2023-11-13T18:18:11.647Z,6
2023-11-13T18:24:02.256Z,5.8
2023-11-13T18:29:34.167Z,5.6
2023-11-13T18:35:26.498Z,5.4
2023-11-13T18:41:21.876Z,5.1
2023-11-13T18:47:14.168Z,4.9
2023-11-13T18:53:05.933Z,4.7
2023-11-13T18:58:56.535Z,4.4
2023-11-13T19:04:36.538Z,4.3
2023-11-13T19:10:34.368Z,4.1
2023-11-13T19:16:25.917Z,4
2023-11-13T19:22:18.517Z,3.9
2023-11-13T19:27:55.240Z,3.8
2023-11-13T19:33:14.855Z,3.7
2023-11-13T19:38:52.732Z,3.6
2023-11-13T19:44:13.330Z,3.5
2023-11-13T19:50:16.772Z,3.4
2023-11-13T19:56:03.752Z,3.4
2023-11-13T20:01:26.185Z,3.2
2023-11-13T20:06:50.982Z,3.1
2023-11-13T20:12:28.293Z,3
2023-11-13T20:18:05.120Z,3
2023-11-13T20:23:38.375Z,2.8
2023-11-13T20:29:32.501Z,2.8
2023-11-13T20:35:18.932Z,2.6
2023-11-13T20:40:54.890Z,2.6
2023-11-13T20:46:31.242Z,2.6
2023-11-13T20:52:09.096Z,2.6
2023-11-13T20:57:44.596Z,2.5
2023-11-13T21:03:08.235Z,2.4
2023-11-13T21:08:57.904Z,2.3
2023-11-13T21:14:49.960Z,2.3
2023-11-13T21:20:27.434Z,2.3
2023-11-13T21:26:04.099Z,2.3
2023-11-13T21:31:41.026Z,2.2
2023-11-13T21:37:18.128Z,2.1
2023-11-13T21:43:09.867Z,2.1
2023-11-13T21:48:46.655Z,2.1
2023-11-13T21:54:23.044Z,1.9
2023-11-13T22:00:01.321Z,1.9
2023-11-13T22:05:23.703Z,1.9
2023-11-13T22:11:15.262Z,1.8
2023-11-13T22:16:51.865Z,1.7
2023-11-13T22:22:29.542Z,1.6
2023-11-13T22:28:05.618Z,1.4
2023-11-13T22:33:42.307Z,1.3
2023-11-13T22:39:18.664Z,1.1
2023-11-13T22:44:55.221Z,1
2023-11-13T22:50:32.615Z,0.9
2023-11-13T22:56:09.280Z,0.8
2023-11-13T23:01:45.953Z,0.8
2023-11-13T23:07:07.763Z,0.9
2023-11-13T23:12:43.973Z,0.9
2023-11-13T23:18:21.390Z,0.9
2023-11-13T23:24:21.647Z,0.9
2023-11-13T23:29:58.073Z,0.9
2023-11-13T23:35:34.525Z,0.9
2023-11-13T23:41:11.615Z,0.9
2023-11-13T23:46:47.739Z,0.9
2023-11-13T23:52:24.128Z,0.9
2023-11-13T23:58:00.770Z,0.9
